Ignace, Canada
Current Conditions -  °F | °C
As of 6:44 AM on Sunday 21 Dec 2014 (Local Time) from CYXL Reporting Station
Light Snow Light Snow  
Wind Chill: 20°   Ceiling: 400
Heat Index: 27°   Visibility: 0.75mi
Dew Point: 27°   Wind: 6mph
Humidity: 100%   Direction: 160°SSE
Pressure: 29.84"   Gusts: NA
Location:  49.42°N, 91.67°W
Report Text: CYXL 211244Z 16005KT 3/4SM -SN VV004 M03/M03 A2984 RMK SN8 SLP128
Loading
Personal Weather Stations






























Interactive Weather Map New forecast layout! Learn more

10-Day Weather Forecast

Advertisements
Track Severe Weather on mobile